ADDS METAR Data INFO
IDs: Format: Raw Decoded Include TAF

Data at: 1531 UTC 18 Jun 2018

KTBR 181515Z AUTO 28005KT 10SM BKN030 BKN037 30/23 A3013 RMK AO2 T02960228
KTBR 181455Z AUTO 21004KT 10SM SCT028 29/23 A3013 RMK AO2 T02930225
KTBR 181435Z AUTO 23006KT 10SM SCT026 29/23 A3013 RMK AO2 T02890228
KTBR 181410Z AUTO 19006KT 10SM SCT022 29/23 A3013 RMK AO2 T02860228
KTBR 181355Z AUTO 22006KT 10SM CLR 28/23 A3013 RMK AO2 T02800227
KTBR 181335Z AUTO 23004KT 10SM CLR 28/23 A3014 RMK AO2 T02770229
KTBR 181315Z AUTO 24005KT 10SM CLR 28/23 A3014 RMK AO2 T02750232
KTBR 181255Z AUTO 23006KT 10SM CLR 27/23 A3014 RMK AO2 T02660231
KTBR 181235Z AUTO 20004KT 10SM CLR 26/23 A3014 RMK AO2 T02600233
KTBR 181215Z AUTO 19004KT 10SM CLR 26/23 A3014 RMK AO2 T02550230
KTBR 181155Z AUTO 00000KT 10SM CLR 24/23 A3014 RMK AO2 T02440227 10244 20215
KTBR 181135Z AUTO 00000KT 10SM CLR 23/22 A3013 RMK AO2 T02300222
KTBR 181115Z AUTO 00000KT 10SM CLR 22/22 A3014 RMK AO2 T02220216
KTBR 181055Z AUTO 00000KT 10SM CLR 22/22 A3013 RMK AO2 T02180215
KTBR 181035Z AUTO 00000KT 10SM CLR 22/21 A3013 RMK AO2 T02160212
KTBR 181015Z AUTO 00000KT 10SM CLR 22/21 A3013 RMK AO2 T02150211
KTBR 180955Z AUTO 00000KT 10SM CLR 22/21 A3013 RMK AO2 T02160212
KTBR 180930Z AUTO 00000KT 10SM CLR 22/21 A3013 RMK AO2 T02180214
KTBR 180915Z AUTO 00000KT 10SM CLR 22/22 A3013 RMK AO2 T02180215
KTBR 180855Z AUTO 00000KT 10SM CLR 22/22 A3012 RMK AO2 T02180215
KTBR 180835Z AUTO 00000KT 10SM CLR 22/22 A3012 RMK AO2 T02200215
KTBR 180815Z AUTO 00000KT 10SM CLR 22/22 A3011 RMK AO2 T02190215
KTBR 180755Z AUTO 00000KT 10SM CLR 22/22 A3011 RMK AO2 T02200216
KTBR 180735Z AUTO 00000KT 10SM CLR 22/22 A3011 RMK AO2 T02200215
KTBR 180715Z AUTO 00000KT 10SM CLR 22/22 A3011 RMK AO2 T02210217
KTBR 180655Z AUTO 00000KT 10SM CLR 22/22 A3011 RMK AO2 T02210216
KTBR 180635Z AUTO 00000KT 10SM CLR 22/22 A3011 RMK AO2 T02220218
KTBR 180615Z AUTO 00000KT 10SM CLR 22/22 A3011 RMK AO2 T02220217
KTBR 180555Z AUTO 00000KT 10SM CLR 22/22 A3012 RMK AO2 T02220217 10267 20220 403180215
KTBR 180535Z AUTO 00000KT 10SM CLR 22/22 A3013 RMK AO2 T02230218
KTBR 180515Z AUTO 00000KT 10SM CLR 22/22 A3013 RMK AO2 T02230218
KTBR 180455Z AUTO 00000KT 10SM CLR 22/22 A3014 RMK AO2 T02230215
KTBR 180435Z AUTO 00000KT 10SM CLR 23/22 A3014 RMK AO2 T02260218
KTBR 180415Z AUTO 00000KT 10SM CLR 23/22 A3015 RMK AO2 T02260218
KTBR 180355Z AUTO 00000KT 10SM CLR 23/22 A3014 RMK AO2 T02310218
KTBR 180335Z AUTO 00000KT 10SM CLR 23/22 A3013 RMK AO2 T02330220
KTBR 180315Z AUTO 00000KT 10SM CLR 23/22 A3014 RMK AO2 T02290220
KTBR 180255Z AUTO 00000KT 10SM CLR 23/22 A3014 RMK AO2 T02330221
KTBR 180235Z AUTO 00000KT 10SM CLR 23/22 A3013 RMK AO2 T02330222
KTBR 180215Z AUTO 00000KT 10SM CLR 24/22 A3012 RMK AO2 T02350221
KTBR 180155Z AUTO 00000KT 10SM CLR 24/22 A3012 RMK AO2 T02360220
KTBR 180135Z AUTO 00000KT 10SM CLR 24/23 A3012 RMK AO2 T02410225
KTBR 180115Z AUTO 00000KT 10SM CLR 25/22 A3012 RMK AO2 T02470220
KTBR 180055Z AUTO 00000KT 10SM CLR 25/22 A3011 RMK AO2 T02500221
KTBR 180035Z AUTO 00000KT 10SM CLR 26/22 A3011 RMK AO2 T02560220
KTBR 180015Z AUTO 00000KT 10SM CLR 26/22 A3010 RMK AO2 T02600216
KTBR 172355Z AUTO 15003KT 10SM CLR 27/21 A3010 RMK AO2 T02680213 10318 20261
KTBR 172335Z AUTO 17005KT 10SM CLR 27/22 A3010 RMK AO2 T02700217
KTBR 172315Z AUTO 20004KT 10SM CLR 27/22 A3010 RMK AO2 T02710221
KTBR 172255Z AUTO 18009KT 10SM CLR 28/22 A3008 RMK AO2 T02750218
KTBR 172235Z AUTO 16008KT 10SM CLR 28/22 A3008 RMK AO2 T02830215
KTBR 172215Z AUTO 16007KT 10SM CLR 28/22 A3008 RMK AO2 T02770223
KTBR 172155Z AUTO 21008KT 10SM CLR 28/22 A3009 RMK AO2 LTG DSNT S T02750224
KTBR 172135Z AUTO 21009KT 10SM CLR 28/22 A3011 RMK AO2 LTG DSNT NE THRU SW T02760224
KTBR 172115Z AUTO 22003KT 10SM CLR 27/22 A3012 RMK AO2 LTG DSNT SE THRU SW T02660221
KTBR 172055Z AUTO 24005KT 10SM CLR 26/22 A3012 RMK AO2 LTG DSNT SE THRU SW T02610219
KTBR 172035Z AUTO 28009KT 10SM VCTS SCT040 SCT046 27/22 A3011 RMK AO2 LTG DSNT S T02690224
KTBR 172015Z AUTO 28009KT 10SM SCT040 SCT046 29/23 A3011 RMK AO2 LTG DSNT S T02920227
KTBR 171955Z AUTO 00000KT 10SM CLR 32/21 A3011 RMK AO2 T03160210
KTBR 171935Z AUTO 11003KT 10SM VCTS CLR 32/21 A3011 RMK AO2 LTG DSNT E SW AND W T03180209
KTBR 171915Z AUTO 14004KT 10SM VCTS CLR 31/22 A3010 RMK AO2 LTG DSNT E AND SW T03090215
KTBR 171855Z AUTO 11005KT 10SM SCT032 31/23 A3011 RMK AO2 LTG DSNT E AND SW T03070225
KTBR 171835Z AUTO 00000KT 10SM CLR 31/22 A3012 RMK AO2 LTG DSNT SW T03090222
KTBR 171815Z AUTO 10004KT 10SM CLR 31/23 A3013 RMK AO2 LTG DSNT E SW AND W T03050226
KTBR 171755Z AUTO 07003KT 10SM VCTS CLR 30/23 A3013 RMK AO2 LTG DSNT SE THRU W T02990228 10299 20230
KTBR 171735Z AUTO 21003KT 10SM VCTS SCT025 SCT060 SCT110 29/23 A3014 RMK AO2 LTG DSNT W T02850228
KTBR 171715Z AUTO 20006KT 10SM BKN027 BKN049 BKN060 27/22 A3015 RMK AO2 LTG DSNT E AND W T02740219
KTBR 171655Z AUTO 20006KT 10SM OVC027 28/23 A3015 RMK AO2 LTG DSNT W T02760233
KTBR 171635Z AUTO 32003KT 10SM BKN025 BKN039 30/23 A3015 RMK AO2 LTG DSNT S AND W T02980234
KTBR 171615Z AUTO 00000KT 10SM SCT023 SCT030 29/23 A3016 RMK AO2 T02900230
KTBR 171555Z AUTO 32003KT 10SM BKN021 BKN030 28/23 A3016 RMK AO2 T02810234
KTBR 171535Z AUTO 00000KT 10SM SCT019 28/23 A3017 RMK AO2 T02820233
KTBR 171515Z AUTO 00000KT 10SM BKN017 27/23 A3017 RMK AO2 LTG DSNT W T02720229
KTBR 171455Z AUTO 00000KT 10SM SCT015 SCT022 27/23 A3017 RMK AO2 LTG DSNT W T02700233
KTBR 171435Z AUTO 29003KT 10SM SCT011 26/23 A3016 RMK AO2 T02630232
KTBR 171415Z AUTO 28005KT 10SM SCT009 26/23 A3016 RMK AO2 T02570232
KTBR 171355Z AUTO 31003KT 10SM SCT009 25/23 A3015 RMK AO2 LTG DSNT W T02500230
KTBR 171335Z AUTO 29003KT 10SM CLR 25/23 A3015 RMK AO2 T02460230
KTBR 171315Z AUTO 30003KT 10SM SCT007 24/23 A3015 RMK AO2 LTG DSNT W T02430230
KTBR 171255Z AUTO 00000KT 10SM CLR 24/23 A3013 RMK AO2 LTG DSNT W T02400228
KTBR 171235Z AUTO 00000KT 10SM CLR 24/23 A3013 RMK AO2 LTG DSNT W T02370225
KTBR 171215Z AUTO 00000KT 10SM CLR 24/23 A3012 RMK AO2 LTG DSNT W T02350226
KTBR 171155Z AUTO 00000KT 10SM SCT002 23/23 A3011 RMK AO2 T02300225 10230 20215
KTBR 171135Z AUTO 00000KT 10SM SCT002 23/22 A3011 RMK AO2 LTG DSNT W T02280224
KTBR 171115Z AUTO 00000KT 10SM BKN002 23/22 A3010 RMK AO2 T02250223
KTBR 171055Z AUTO 00000KT 2SM BR BKN002 22/22 A3010 RMK AO2 T02200220
KTBR 171035Z AUTO 00000KT 1 3/4SM BR BKN002 22/22 A3010 RMK AO2 T02200218
KTBR 171015Z AUTO 00000KT 2SM BR BKN002 22/22 A3009 RMK AO2 T02200218
KTBR 170955Z AUTO 00000KT 1/2SM FG OVC002 22/22 A3008 RMK AO2 T02200219
KTBR 170935Z AUTO 00000KT 3/4SM BR OVC002 22/22 A3008 RMK AO2 T02200220
KTBR 170915Z AUTO 00000KT 5SM BR BKN002 22/22 A3007 RMK AO2 T02200218
KTBR 170855Z AUTO 01003KT 10SM CLR 22/22 A3007 RMK AO2 T02200217
KTBR 170835Z AUTO 00000KT 7SM CLR 22/21 A3006 RMK AO2 T02150214
KTBR 170815Z AUTO 00000KT 7SM CLR 22/22 A3006 RMK AO2 T02180216
KTBR 170755Z AUTO 00000KT 7SM CLR 22/22 A3007 RMK AO2 T02180216
KTBR 170735Z AUTO 00000KT 5SM BR CLR 22/22 A3007 RMK AO2 T02190216
KTBR 170715Z AUTO 00000KT 7SM CLR 22/22 A3008 RMK AO2 T02200219
KTBR 170655Z AUTO 00000KT 7SM CLR 22/22 A3008 RMK AO2 T02210219
KTBR 170635Z AUTO 00000KT 7SM CLR 22/22 A3008 RMK AO2 T02230220
KTBR 170615Z AUTO 00000KT 7SM CLR 22/22 A3009 RMK AO2 T02240221
KTBR 170555Z AUTO 00000KT 10SM CLR 23/22 A3009 RMK AO2 T02260221 10235 20225 403350217
KTBR 170535Z AUTO 02003KT 10SM CLR 23/22 A3009 RMK AO2 T02280223
KTBR 170515Z AUTO 00000KT 10SM CLR 23/22 A3008 RMK AO2 T02270224
KTBR 170455Z AUTO 00000KT 10SM CLR 23/23 A3008 RMK AO2 T02280225
KTBR 170435Z AUTO 00000KT 10SM CLR 23/22 A3008 RMK AO2 T02250222
KTBR 170415Z AUTO 00000KT 10SM CLR 23/23 A3008 RMK AO2 T02280225
KTBR 170355Z AUTO 00000KT 10SM CLR 24/23 A3008 RMK AO2 T02350225
KTBR 170335Z AUTO 21003KT 10SM CLR 24/23 A3009 RMK AO2 T02350225